createdAt,value
2022-08-05T00:00:29.263Z,22.07
2022-08-05T00:01:29.379Z,22.08
2022-08-05T00:02:29.174Z,21.97
2022-08-05T00:03:29.041Z,22.04
2022-08-05T00:04:28.974Z,22.04
2022-08-05T00:06:05.523Z,21.94
2022-08-05T00:06:33.161Z,22.02
2022-08-05T00:07:59.663Z,22.01
2022-08-05T00:08:34.607Z,22.10
2022-08-05T00:09:28.610Z,22.04
2022-08-05T00:10:28.545Z,22.04
2022-08-05T00:11:34.614Z,22.04
2022-08-05T00:12:28.397Z,22.04
2022-08-05T00:13:38.455Z,22.07
2022-08-05T00:14:31.471Z,22.10
2022-08-05T00:15:54.895Z,22.07
2022-08-05T00:16:36.510Z,22.02
2022-08-05T00:17:28.031Z,22.00
2022-08-05T00:18:27.968Z,22.07
2022-08-05T00:19:33.745Z,21.91
2022-08-05T00:20:29.093Z,21.95
2022-08-05T00:21:27.738Z,22.01
2022-08-05T00:22:27.673Z,22.08
2022-08-05T00:23:44.557Z,22.04
2022-08-05T00:24:30.681Z,22.08
2022-08-05T00:25:27.452Z,22.05
2022-08-05T00:26:27.384Z,22.20
2022-08-05T00:27:35.685Z,22.17
2022-08-05T00:28:29.790Z,22.23
2022-08-05T00:29:27.636Z,22.24
2022-08-05T00:30:29.001Z,22.32
2022-08-05T00:31:53.806Z,22.28
2022-08-05T00:32:26.946Z,22.24
2022-08-05T00:34:53.350Z,22.28
2022-08-05T00:34:54.486Z,22.13
2022-08-05T00:35:33.333Z,22.13
2022-08-05T00:37:11.306Z,22.04
2022-08-05T00:37:26.862Z,22.00
2022-08-05T00:38:28.887Z,21.92
2022-08-05T00:39:26.504Z,21.82
2022-08-05T00:40:28.740Z,21.64
2022-08-05T00:41:26.288Z,21.60
2022-08-05T00:42:31.692Z,21.53
2022-08-05T00:43:26.155Z,21.51
2022-08-05T00:44:30.937Z,21.46
2022-08-05T00:45:37.829Z,21.41
2022-08-05T00:46:42.419Z,21.39
2022-08-05T00:47:25.853Z,21.38
2022-08-05T00:48:27.677Z,21.39
2022-08-05T00:49:25.711Z,21.30
2022-08-05T00:50:25.877Z,21.30
2022-08-05T00:51:50.559Z,21.41
2022-08-05T00:52:28.518Z,21.39
2022-08-05T00:54:01.482Z,21.38
2022-08-05T00:54:28.010Z,21.31
2022-08-05T00:55:42.531Z,21.31
2022-08-05T00:56:25.198Z,21.33
2022-08-05T00:57:31.765Z,21.36
2022-08-05T00:58:27.227Z,21.38
2022-08-05T00:59:24.980Z,21.39
2022-08-05T01:00:25.827Z,21.39
2022-08-05T01:01:42.685Z,21.31
2022-08-05T01:02:24.765Z,21.31
2022-08-05T01:03:24.693Z,21.26
2022-08-05T01:04:27.001Z,21.23
2022-08-05T01:05:24.560Z,21.14
2022-08-05T01:06:32.763Z,21.14
2022-08-05T01:07:31.471Z,21.06
2022-08-05T01:08:30.623Z,21.14
2022-08-05T01:09:24.250Z,21.12
2022-08-05T01:10:25.803Z,21.26
2022-08-05T01:11:33.442Z,21.17
2022-08-05T01:12:24.031Z,21.26
2022-08-05T01:13:27.575Z,21.21
2022-08-05T01:14:28.475Z,21.26
2022-08-05T01:15:36.147Z,21.41
2022-08-05T01:16:26.525Z,21.31
2022-08-05T01:17:23.857Z,21.35
2022-08-05T01:18:23.598Z,21.29
2022-08-05T01:19:56.116Z,21.30
2022-08-05T01:20:23.447Z,21.29
2022-08-05T01:21:23.379Z,21.26
2022-08-05T01:22:24.222Z,21.26
2022-08-05T01:23:23.672Z,21.14
2022-08-05T01:24:23.154Z,21.14
2022-08-05T01:25:23.084Z,20.99
2022-08-05T01:26:26.162Z,21.04
2022-08-05T01:27:22.944Z,20.94
2022-08-05T01:28:22.860Z,20.93
2022-08-05T01:29:23.012Z,20.91
2022-08-05T01:30:34.616Z,20.96
2022-08-05T01:31:22.639Z,20.90
2022-08-05T01:32:22.569Z,20.80
2022-08-05T01:33:25.455Z,20.90
2022-08-05T01:34:22.421Z,20.82
2022-08-05T01:35:51.215Z,20.86
2022-08-05T01:36:28.106Z,20.76
2022-08-05T01:37:24.839Z,20.83
2022-08-05T01:38:27.424Z,20.79
2022-08-05T01:39:46.547Z,20.79
2022-08-05T01:40:21.978Z,20.64
2022-08-05T01:41:22.123Z,20.68
2022-08-05T01:42:21.835Z,20.72
2022-08-05T01:43:21.932Z,20.57
2022-08-05T01:44:21.686Z,20.53
2022-08-05T01:45:21.614Z,20.56
2022-08-05T01:46:42.238Z,20.51
2022-08-05T01:47:21.723Z,20.50
2022-08-05T01:48:21.395Z,20.57
2022-08-05T01:49:24.436Z,20.59
2022-08-05T01:50:28.555Z,20.57
2022-08-05T01:51:21.178Z,20.66
2022-08-05T01:52:21.101Z,20.71
2022-08-05T01:53:54.528Z,20.50
2022-08-05T01:54:25.580Z,20.56
2022-08-05T01:55:20.921Z,20.56
2022-08-05T01:58:09.772Z,20.61
2022-08-05T01:58:11.342Z,20.66
2022-08-05T01:58:40.428Z,20.64
2022-08-05T01:59:20.586Z,20.59
2022-08-05T02:00:20.513Z,20.64
2022-08-05T02:01:23.307Z,20.68
2022-08-05T02:02:20.463Z,20.51
2022-08-05T02:03:28.961Z,20.56
2022-08-05T02:04:20.220Z,20.49
2022-08-05T02:05:20.145Z,20.50
2022-08-05T02:06:37.355Z,20.42
2022-08-05T02:07:21.856Z,20.27
2022-08-05T02:08:29.650Z,20.34
2022-08-05T02:09:20.623Z,20.37
2022-08-05T02:10:19.777Z,20.51
2022-08-05T02:11:23.606Z,20.37
2022-08-05T02:12:19.624Z,20.34
2022-08-05T02:13:19.554Z,20.50
2022-08-05T02:14:19.484Z,20.47
2022-08-05T02:15:19.639Z,20.56
2022-08-05T02:16:19.335Z,20.50
2022-08-05T02:18:28.519Z,20.54
2022-08-05T02:18:31.407Z,20.53
2022-08-05T02:19:19.113Z,20.51
2022-08-05T02:20:20.519Z,20.46
2022-08-05T02:21:18.968Z,20.49
2022-08-05T02:22:25.544Z,20.42
2022-08-05T02:23:18.819Z,20.42
2022-08-05T02:24:18.742Z,20.28
2022-08-05T02:25:18.680Z,20.31
2022-08-05T02:26:18.600Z,20.12
2022-08-05T02:27:18.521Z,20.12
2022-08-05T02:28:28.435Z,20.08
2022-08-05T02:29:21.551Z,20.13
2022-08-05T02:30:18.301Z,20.03
2022-08-05T02:31:21.272Z,20.08
2022-08-05T02:32:19.927Z,20.13
2022-08-05T02:33:24.567Z,20.10
2022-08-05T02:34:18.002Z,20.06
2022-08-05T02:35:22.093Z,20.19
2022-08-05T02:36:17.857Z,20.23
2022-08-05T02:37:17.784Z,20.20
2022-08-05T02:38:19.314Z,20.26
2022-08-05T02:39:17.657Z,20.31
2022-08-05T02:40:17.560Z,20.35
2022-08-05T02:41:17.748Z,20.31
2022-08-05T02:42:25.769Z,20.51
2022-08-05T02:43:17.340Z,20.46
2022-08-05T02:44:17.267Z,20.46
2022-08-05T02:45:17.193Z,20.37
2022-08-05T02:46:17.117Z,20.38
2022-08-05T02:47:17.044Z,20.27
2022-08-05T02:48:16.968Z,20.34
2022-08-05T02:49:16.894Z,20.28
2022-08-05T02:50:18.193Z,20.30
2022-08-05T02:51:16.747Z,20.30
2022-08-05T02:52:29.712Z,20.31
2022-08-05T02:53:19.150Z,20.23
2022-08-05T02:54:35.603Z,20.35
2022-08-05T02:55:17.561Z,20.33
2022-08-05T02:56:18.852Z,20.30
2022-08-05T02:58:16.227Z,20.23
2022-08-05T02:58:19.855Z,20.27
2022-08-05T02:59:16.154Z,20.28
2022-08-05T03:00:16.082Z,20.34
2022-08-05T03:01:16.072Z,20.38
2022-08-05T03:02:15.931Z,20.51
2022-08-05T03:03:15.860Z,20.49
2022-08-05T03:04:15.883Z,20.43
2022-08-05T03:05:15.714Z,20.49
2022-08-05T03:06:53.763Z,20.47
2022-08-05T03:07:21.479Z,20.43
2022-08-05T03:08:16.569Z,20.42
2022-08-05T03:09:17.616Z,20.35
2022-08-05T03:10:15.342Z,20.42
2022-08-05T03:11:54.886Z,20.26
2022-08-05T03:12:15.193Z,20.27
2022-08-05T03:13:16.907Z,20.34
2022-08-05T03:14:15.048Z,20.40
2022-08-05T03:15:14.973Z,20.31
2022-08-05T03:16:15.634Z,20.28
2022-08-05T03:17:14.822Z,20.30
2022-08-05T03:18:14.746Z,20.28
2022-08-05T03:19:29.452Z,20.34
2022-08-05T03:20:14.601Z,20.30
2022-08-05T03:21:14.528Z,20.30
2022-08-05T03:22:16.773Z,20.27
2022-08-05T03:23:14.378Z,20.26
2022-08-05T03:24:14.302Z,20.34
2022-08-05T03:25:34.094Z,20.30
2022-08-05T03:26:30.955Z,20.54
2022-08-05T03:27:14.082Z,20.42
2022-08-05T03:28:14.233Z,20.47
2022-08-05T03:29:17.211Z,20.56
2022-08-05T03:30:13.862Z,20.47
2022-08-05T03:31:55.373Z,20.65
2022-08-05T03:32:14.277Z,20.91
2022-08-05T03:33:13.641Z,21.05
2022-08-05T03:34:13.574Z,21.21
2022-08-05T03:35:13.492Z,21.36
2022-08-05T03:36:13.416Z,21.35
2022-08-05T03:37:13.343Z,21.48
2022-08-05T03:38:14.329Z,21.60
2022-08-05T03:39:20.370Z,21.84
2022-08-05T03:40:13.186Z,21.86
2022-08-05T03:41:13.049Z,21.89
2022-08-05T03:42:12.974Z,21.97
2022-08-05T03:43:59.004Z,21.92
2022-08-05T03:44:12.829Z,21.94
2022-08-05T03:45:21.956Z,21.94
2022-08-05T03:46:12.677Z,21.98
2022-08-05T03:47:20.348Z,21.89
2022-08-05T03:48:12.530Z,21.97
2022-08-05T03:49:12.454Z,21.94
2022-08-05T03:50:12.381Z,21.86
2022-08-05T03:52:37.774Z,21.79
2022-08-05T03:52:38.671Z,21.85
2022-08-05T03:55:07.197Z,21.86
2022-08-05T03:55:53.047Z,21.79
2022-08-05T03:56:01.399Z,21.78
2022-08-05T03:56:18.082Z,21.81
2022-08-05T03:57:16.054Z,21.79
2022-08-05T03:58:11.791Z,21.75
2022-08-05T03:59:11.716Z,21.72
2022-08-05T04:00:11.655Z,21.69
2022-08-05T04:01:13.158Z,21.63
2022-08-05T04:02:17.305Z,21.53
2022-08-05T04:03:14.940Z,21.54
2022-08-05T04:04:11.347Z,21.57
2022-08-05T04:05:11.275Z,21.42
2022-08-05T04:06:11.204Z,21.36
2022-08-05T04:07:11.129Z,21.30
2022-08-05T04:08:29.674Z,21.33
2022-08-05T04:09:10.983Z,21.29
2022-08-05T04:10:10.904Z,21.29
2022-08-05T04:11:10.842Z,21.16
2022-08-05T04:12:24.709Z,21.31
2022-08-05T04:13:10.691Z,21.19
2022-08-05T04:14:10.613Z,21.14
2022-08-05T04:15:10.536Z,21.17
2022-08-05T04:16:10.466Z,21.14
2022-08-05T04:17:11.379Z,21.23
2022-08-05T04:18:11.911Z,21.19
2022-08-05T04:19:10.629Z,21.14
2022-08-05T04:20:10.175Z,21.29
2022-08-05T04:21:11.079Z,21.30
2022-08-05T04:22:12.176Z,21.36
2022-08-05T04:23:12.504Z,21.38
2022-08-05T04:24:18.869Z,21.35
2022-08-05T04:25:10.827Z,21.35
2022-08-05T04:26:09.731Z,21.44
2022-08-05T04:27:09.654Z,21.41
2022-08-05T04:28:12.801Z,21.38
2022-08-05T04:29:09.506Z,21.46
2022-08-05T04:30:09.430Z,21.48
2022-08-05T04:31:10.569Z,21.56
2022-08-05T04:32:09.288Z,21.59
2022-08-05T04:33:09.218Z,21.61
2022-08-05T04:34:31.450Z,21.67
2022-08-05T04:35:17.505Z,21.72
2022-08-05T04:36:16.247Z,21.69
2022-08-05T04:37:08.916Z,21.67
2022-08-05T04:38:08.846Z,21.76
2022-08-05T04:39:08.882Z,21.78
2022-08-05T04:40:08.699Z,21.81
2022-08-05T04:41:09.621Z,21.72
2022-08-05T04:42:09.159Z,21.81
2022-08-05T04:43:10.984Z,21.79
2022-08-05T04:44:09.385Z,21.81
2022-08-05T04:45:08.330Z,21.85
2022-08-05T04:46:08.260Z,21.79
2022-08-05T04:47:09.923Z,21.81
2022-08-05T04:48:08.110Z,21.89
2022-08-05T04:49:14.629Z,21.86
2022-08-05T04:50:11.446Z,21.94
2022-08-05T04:51:11.343Z,21.95
2022-08-05T04:52:07.875Z,21.91
2022-08-05T04:53:08.452Z,21.94
2022-08-05T04:54:07.668Z,21.97
2022-08-05T04:55:14.234Z,21.98
2022-08-05T04:56:14.466Z,22.04
2022-08-05T04:57:07.450Z,22.04
2022-08-05T04:58:07.378Z,22.01
2022-08-05T04:59:22.233Z,22.13
2022-08-05T05:00:07.227Z,22.08
2022-08-05T05:01:07.212Z,22.04
2022-08-05T05:02:41.578Z,22.02
2022-08-05T05:03:07.069Z,22.02
2022-08-05T05:04:06.931Z,22.08
2022-08-05T05:05:26.464Z,22.01
2022-08-05T05:06:40.375Z,22.07
2022-08-05T05:07:09.485Z,22.12
2022-08-05T05:08:06.642Z,22.16
2022-08-05T05:09:06.564Z,22.19
2022-08-05T05:10:06.697Z,22.22
2022-08-05T05:11:06.421Z,22.26
2022-08-05T05:12:06.413Z,22.32
2022-08-05T05:13:06.274Z,22.38
2022-08-05T05:14:06.200Z,22.46
2022-08-05T05:15:06.127Z,22.44
2022-08-05T05:16:07.122Z,22.38
2022-08-05T05:17:07.455Z,22.49
2022-08-05T05:18:05.907Z,22.44
2022-08-05T05:19:18.732Z,22.57
2022-08-05T05:20:05.761Z,22.74
2022-08-05T05:21:05.745Z,22.67
2022-08-05T05:22:24.338Z,22.60
2022-08-05T05:23:08.478Z,22.75
2022-08-05T05:24:09.055Z,22.79
2022-08-05T05:25:16.408Z,22.83
2022-08-05T05:26:05.323Z,22.86
2022-08-05T05:27:05.249Z,22.92
2022-08-05T05:28:05.178Z,22.99
2022-08-05T05:29:14.345Z,23.02
2022-08-05T05:30:05.377Z,23.04
2022-08-05T05:31:05.667Z,23.17
2022-08-05T05:32:04.923Z,23.22
2022-08-05T05:33:16.455Z,23.20
2022-08-05T05:34:04.743Z,23.18
2022-08-05T05:35:04.677Z,23.26
2022-08-05T05:36:05.018Z,23.37
2022-08-05T05:37:04.526Z,23.31
2022-08-05T05:38:05.655Z,23.40
2022-08-05T05:39:04.562Z,23.46
2022-08-05T05:40:04.307Z,23.42
2022-08-05T05:41:04.233Z,23.55
2022-08-05T05:42:04.159Z,23.65
2022-08-05T05:43:04.084Z,23.71
2022-08-05T05:44:04.017Z,23.70
2022-08-05T05:45:03.945Z,23.70
2022-08-05T05:46:03.873Z,23.75
2022-08-05T05:47:04.396Z,23.92
2022-08-05T05:48:05.349Z,23.92
2022-08-05T05:49:06.476Z,23.93
2022-08-05T05:50:04.213Z,24.00
2022-08-05T05:51:15.203Z,24.08
2022-08-05T05:52:05.907Z,24.17
2022-08-05T05:53:03.353Z,24.16
2022-08-05T05:54:03.285Z,24.12
2022-08-05T05:55:07.309Z,24.32
2022-08-05T05:56:03.405Z,24.37
2022-08-05T05:57:03.064Z,24.37
2022-08-05T05:58:02.993Z,24.47
2022-08-05T05:59:05.387Z,24.42
2022-08-05T06:00:02.848Z,24.47
2022-08-05T06:01:13.093Z,24.42
2022-08-05T06:02:02.704Z,24.44
2022-08-05T06:03:02.626Z,24.56
2022-08-05T06:04:03.685Z,24.56
2022-08-05T06:05:03.485Z,24.59
2022-08-05T06:06:02.413Z,24.67
2022-08-05T06:07:02.340Z,24.67
2022-08-05T06:08:03.765Z,24.79
2022-08-05T06:09:03.967Z,24.95
2022-08-05T06:10:04.735Z,24.98
2022-08-05T06:11:02.055Z,25.05
2022-08-05T06:12:02.934Z,25.05
2022-08-05T06:13:01.909Z,25.20
2022-08-05T06:14:02.141Z,25.31
2022-08-05T06:15:01.765Z,25.32
2022-08-05T06:16:30.384Z,25.40
2022-08-05T06:17:02.270Z,25.59
2022-08-05T06:18:01.548Z,25.74
2022-08-05T06:19:02.094Z,25.70
2022-08-05T06:20:01.401Z,25.78
2022-08-05T06:21:01.332Z,25.79
2022-08-05T06:22:01.262Z,25.89
2022-08-05T06:23:01.187Z,25.89
2022-08-05T06:24:01.600Z,25.84
2022-08-05T06:25:01.042Z,25.97
2022-08-05T06:26:20.642Z,25.97
2022-08-05T06:27:00.896Z,25.89
2022-08-05T06:28:10.624Z,26.01
2022-08-05T06:29:03.716Z,26.01
2022-08-05T06:30:04.004Z,25.90
2022-08-05T06:31:00.608Z,26.02
2022-08-05T06:32:00.547Z,26.05
2022-08-05T06:33:00.471Z,26.07
2022-08-05T06:34:07.036Z,26.09
2022-08-05T06:35:00.328Z,26.07
2022-08-05T06:36:07.936Z,26.05
2022-08-05T06:37:00.187Z,26.09
2022-08-05T06:38:03.066Z,25.93
2022-08-05T06:39:00.067Z,26.01
2022-08-05T06:39:59.970Z,25.94
2022-08-05T06:40:59.904Z,25.92
2022-08-05T06:41:59.828Z,25.87
2022-08-05T06:42:59.757Z,25.79
2022-08-05T06:44:00.773Z,25.87
2022-08-05T06:44:59.610Z,25.84
2022-08-05T06:46:06.582Z,25.89
2022-08-05T06:46:59.468Z,25.93
2022-08-05T06:48:36.868Z,25.87
2022-08-05T06:49:00.771Z,25.86
2022-08-05T06:50:01.917Z,25.79
2022-08-05T06:51:00.160Z,25.79
2022-08-05T06:51:59.114Z,25.86
2022-08-05T06:53:11.290Z,25.83
2022-08-05T06:53:58.977Z,25.87
2022-08-05T06:54:58.939Z,25.92
2022-08-05T06:55:58.841Z,25.86
2022-08-05T06:57:56.597Z,25.92
2022-08-05T06:58:11.616Z,25.94
2022-08-05T06:58:58.609Z,25.94
2022-08-05T06:59:58.548Z,26.04
2022-08-05T07:00:58.552Z,26.08
2022-08-05T07:01:58.402Z,26.01
2022-08-05T07:02:58.327Z,26.02
2022-08-05T07:03:58.268Z,26.07
2022-08-05T07:04:58.187Z,25.97
2022-08-05T07:05:58.119Z,25.93
2022-08-05T07:06:58.059Z,25.94
2022-08-05T07:07:57.977Z,26.02
2022-08-05T07:08:59.028Z,26.08
2022-08-05T07:09:58.439Z,26.04
2022-08-05T07:10:57.757Z,26.21
2022-08-05T07:12:00.390Z,26.12
2022-08-05T07:12:57.618Z,26.21
2022-08-05T07:13:59.923Z,26.24
2022-08-05T07:14:57.478Z,26.27
2022-08-05T07:16:00.823Z,26.39
2022-08-05T07:18:00.088Z,26.30
2022-08-05T07:18:09.310Z,26.31
2022-08-05T07:18:57.199Z,26.38
2022-08-05T07:20:31.435Z,26.40
2022-08-05T07:20:57.047Z,26.46
2022-08-05T07:21:59.771Z,26.47
2022-08-05T07:22:56.907Z,26.49
2022-08-05T07:23:56.837Z,26.57
2022-08-05T07:24:56.771Z,26.60
2022-08-05T07:25:57.041Z,26.61
2022-08-05T07:26:56.621Z,26.68
2022-08-05T07:28:02.298Z,26.67
2022-08-05T07:28:56.483Z,26.72
2022-08-05T07:30:22.182Z,26.84
2022-08-05T07:30:56.340Z,26.82
2022-08-05T07:31:56.266Z,26.92
2022-08-05T07:32:56.199Z,27.02
2022-08-05T07:33:56.139Z,27.08
2022-08-05T07:34:57.773Z,27.09
2022-08-05T07:36:03.390Z,27.23
2022-08-05T07:36:55.918Z,27.19
2022-08-05T07:37:55.844Z,27.36
2022-08-05T07:38:55.774Z,27.32
2022-08-05T07:40:26.933Z,27.36
2022-08-05T07:41:00.314Z,27.54
2022-08-05T07:42:07.699Z,27.54
2022-08-05T07:42:55.492Z,27.67
2022-08-05T07:43:56.597Z,27.83
2022-08-05T07:44:55.350Z,27.88
2022-08-05T07:45:57.067Z,27.92
2022-08-05T07:46:55.214Z,27.98
2022-08-05T07:47:55.791Z,28.07
2022-08-05T07:49:02.030Z,28.22
2022-08-05T07:49:55.000Z,28.20
2022-08-05T07:50:54.931Z,28.43
2022-08-05T07:51:55.246Z,28.41
2022-08-05T07:52:54.795Z,28.43
2022-08-05T07:53:54.723Z,28.46
2022-08-05T07:54:54.652Z,28.44
2022-08-05T07:56:06.434Z,28.34
2022-08-05T07:57:01.451Z,28.44
2022-08-05T07:58:02.070Z,28.54
2022-08-05T07:58:58.605Z,28.59
2022-08-05T07:59:54.308Z,28.68
2022-08-05T08:00:54.268Z,28.75
2022-08-05T08:01:57.468Z,28.84
2022-08-05T08:03:13.641Z,28.84
2022-08-05T08:03:54.026Z,28.93
2022-08-05T08:04:53.958Z,28.96
2022-08-05T08:05:53.897Z,28.93
2022-08-05T08:06:53.831Z,28.94
2022-08-05T08:07:59.554Z,28.90
2022-08-05T08:08:53.679Z,28.93
2022-08-05T08:09:55.056Z,29.06
2022-08-05T08:10:53.541Z,29.11
2022-08-05T08:11:59.037Z,29.18
2022-08-05T08:12:53.414Z,29.07
2022-08-05T08:14:00.697Z,29.01
2022-08-05T08:14:53.271Z,28.98
2022-08-05T08:16:35.675Z,28.96
2022-08-05T08:16:53.619Z,28.94
2022-08-05T08:17:53.270Z,28.81
2022-08-05T08:18:52.990Z,28.80
2022-08-05T08:20:23.478Z,28.59
2022-08-05T08:21:01.996Z,28.61
2022-08-05T08:21:52.789Z,28.56
2022-08-05T08:22:52.718Z,28.65
2022-08-05T08:24:00.967Z,28.53
2022-08-05T08:24:52.584Z,28.54
2022-08-05T08:26:02.170Z,28.46
2022-08-05T08:26:52.480Z,28.51
2022-08-05T08:27:52.377Z,28.72
2022-08-05T08:29:02.090Z,28.75
2022-08-05T08:30:03.842Z,28.84
2022-08-05T08:30:52.170Z,28.91
2022-08-05T08:31:52.100Z,29.06
2022-08-05T08:32:52.032Z,29.10
2022-08-05T08:33:53.132Z,29.21
2022-08-05T08:34:51.913Z,29.25
2022-08-05T08:35:53.103Z,29.37
2022-08-05T08:36:55.817Z,29.44
2022-08-05T08:37:53.501Z,29.43
2022-08-05T08:38:53.398Z,29.59
2022-08-05T08:39:51.632Z,29.50
2022-08-05T08:40:51.871Z,29.62
2022-08-05T08:41:59.823Z,29.65
2022-08-05T08:42:52.558Z,29.80
2022-08-05T08:45:22.227Z,29.97
2022-08-05T08:45:23.124Z,29.95
2022-08-05T08:45:51.150Z,30.06
2022-08-05T08:46:51.077Z,30.17
2022-08-05T08:48:12.845Z,30.24
2022-08-05T08:49:07.473Z,30.24
2022-08-05T08:50:13.209Z,30.37
2022-08-05T08:51:22.157Z,30.48
2022-08-05T08:52:03.623Z,30.62
2022-08-05T08:52:51.664Z,30.70
2022-08-05T08:53:50.609Z,30.65
2022-08-05T08:54:50.534Z,30.87
2022-08-05T08:56:02.813Z,30.87
2022-08-05T08:56:50.404Z,30.83
2022-08-05T08:57:57.983Z,30.59
2022-08-05T08:58:50.564Z,30.43
2022-08-05T08:59:50.203Z,30.27
2022-08-05T09:00:50.182Z,30.22
2022-08-05T09:01:57.232Z,30.06
2022-08-05T09:02:49.999Z,30.02
2022-08-05T09:03:54.547Z,29.99
2022-08-05T09:05:16.482Z,30.03
2022-08-05T09:06:08.500Z,30.10
2022-08-05T09:06:49.889Z,30.10
2022-08-05T09:07:57.578Z,30.17
2022-08-05T09:08:49.594Z,30.17
2022-08-05T09:09:50.203Z,30.18
2022-08-05T09:10:49.462Z,30.15
2022-08-05T09:11:51.504Z,30.29
2022-08-05T09:12:51.004Z,30.40
2022-08-05T09:14:01.081Z,30.52
2022-08-05T09:14:57.859Z,30.53
2022-08-05T09:15:49.122Z,30.57
2022-08-05T09:16:49.151Z,30.75
2022-08-05T09:17:49.565Z,30.93
2022-08-05T09:18:48.919Z,30.94
2022-08-05T09:20:01.982Z,30.97
2022-08-05T09:20:48.803Z,31.01
2022-08-05T09:22:22.813Z,31.01
2022-08-05T09:22:51.867Z,31.01
2022-08-05T09:23:48.595Z,30.94
2022-08-05T09:24:48.521Z,30.86
2022-08-05T09:26:03.156Z,30.89
2022-08-05T09:26:48.392Z,31.04
2022-08-05T09:28:04.081Z,31.14
2022-08-05T09:28:48.251Z,31.27
2022-08-05T09:29:48.264Z,31.45
2022-08-05T09:30:48.124Z,31.48
2022-08-05T09:32:41.098Z,31.67
2022-08-05T09:32:47.999Z,31.86
2022-08-05T09:33:47.937Z,31.76
2022-08-05T09:34:47.851Z,31.71
2022-08-05T09:35:47.792Z,31.67
2022-08-05T09:36:55.897Z,31.68
2022-08-05T09:38:16.564Z,31.61
2022-08-05T09:38:47.596Z,31.41
2022-08-05T09:39:52.282Z,31.41
2022-08-05T09:40:52.545Z,31.34
2022-08-05T09:41:47.395Z,31.26
2022-08-05T09:42:48.398Z,31.21
2022-08-05T09:43:49.373Z,30.99
2022-08-05T09:44:50.407Z,30.83
2022-08-05T09:46:07.706Z,30.81
2022-08-05T09:46:51.945Z,30.86
2022-08-05T09:47:55.857Z,30.74
2022-08-05T09:48:55.441Z,30.62
2022-08-05T09:50:01.315Z,30.59
2022-08-05T09:50:46.794Z,30.75
2022-08-05T09:51:50.000Z,30.99
2022-08-05T09:52:46.665Z,31.15
2022-08-05T09:53:54.293Z,31.27
2022-08-05T09:54:46.537Z,31.44
2022-08-05T09:55:58.100Z,31.53
2022-08-05T09:56:51.744Z,31.63
2022-08-05T09:57:46.337Z,31.71
2022-08-05T09:58:47.449Z,31.70
2022-08-05T09:59:46.200Z,31.80
2022-08-05T10:00:46.133Z,31.87
2022-08-05T10:01:46.372Z,31.91
2022-08-05T10:02:46.015Z,31.89
2022-08-05T10:03:58.557Z,31.82
2022-08-05T10:04:45.869Z,31.86
2022-08-05T10:05:45.802Z,31.87
2022-08-05T10:06:54.827Z,32.03
2022-08-05T10:08:10.927Z,32.23
2022-08-05T10:08:50.322Z,32.23
2022-08-05T10:09:45.673Z,32.39
2022-08-05T10:10:45.474Z,32.45
2022-08-05T10:11:45.472Z,32.60
2022-08-05T10:12:49.990Z,32.76
2022-08-05T10:13:47.643Z,32.82
2022-08-05T10:14:45.213Z,32.88
2022-08-05T10:15:45.208Z,32.87
2022-08-05T10:16:52.817Z,33.01
2022-08-05T10:17:54.571Z,33.09
2022-08-05T10:18:44.948Z,32.99
2022-08-05T10:20:04.470Z,32.80
2022-08-05T10:20:47.840Z,32.75
2022-08-05T10:21:44.753Z,32.82
2022-08-05T10:22:50.690Z,32.84
2022-08-05T10:23:59.512Z,33.11
2022-08-05T10:24:46.021Z,33.16
2022-08-05T10:25:44.504Z,33.32
2022-08-05T10:26:48.905Z,33.37
2022-08-05T10:28:09.274Z,33.47
2022-08-05T10:28:45.091Z,33.37
2022-08-05T10:30:06.608Z,33.42
2022-08-05T10:32:51.032Z,33.51
2022-08-05T10:32:53.303Z,33.49
2022-08-05T10:32:59.446Z,33.39
2022-08-05T10:33:43.992Z,33.45
2022-08-05T10:34:43.907Z,33.52
2022-08-05T10:35:44.716Z,33.49
2022-08-05T10:36:43.775Z,33.54
2022-08-05T10:37:44.959Z,33.52
2022-08-05T10:38:45.064Z,33.51
2022-08-05T10:40:03.699Z,33.61
2022-08-05T10:40:44.891Z,33.79
2022-08-05T10:41:46.995Z,33.86
2022-08-05T10:42:43.679Z,33.97
2022-08-05T10:43:43.325Z,34.08
2022-08-05T10:44:43.259Z,34.23
2022-08-05T10:45:43.196Z,34.30
2022-08-05T10:46:43.135Z,34.41
2022-08-05T10:47:56.130Z,34.48
2022-08-05T10:48:58.137Z,34.57
2022-08-05T10:49:49.092Z,34.56
2022-08-05T10:50:42.878Z,34.59
2022-08-05T10:51:53.107Z,34.59
2022-08-05T10:52:49.484Z,34.59
2022-08-05T10:53:45.360Z,34.77
2022-08-05T10:54:46.858Z,34.75
2022-08-05T10:56:03.513Z,34.92
2022-08-05T10:56:42.498Z,35.04
2022-08-05T10:57:44.698Z,34.97
2022-08-05T10:58:49.561Z,34.89
2022-08-05T11:00:02.483Z,34.91
2022-08-05T11:00:44.048Z,34.91
2022-08-05T11:01:55.495Z,35.07
2022-08-05T11:02:43.708Z,35.07
2022-08-05T11:03:42.084Z,35.21
2022-08-05T11:04:41.989Z,35.16
2022-08-05T11:05:41.960Z,35.16
2022-08-05T11:06:41.861Z,35.16
2022-08-05T11:08:02.752Z,34.99
2022-08-05T11:08:41.731Z,34.91
2022-08-05T11:09:46.460Z,34.99
2022-08-05T11:10:50.370Z,34.99
2022-08-05T11:11:52.050Z,35.19
2022-08-05T11:12:41.891Z,35.13
2022-08-05T11:13:54.632Z,35.10
2022-08-05T11:15:01.370Z,35.16
2022-08-05T11:16:00.987Z,35.34
2022-08-05T11:16:56.171Z,35.31
2022-08-05T11:18:07.685Z,35.46
2022-08-05T11:18:46.955Z,35.55
2022-08-05T11:20:09.936Z,35.66
2022-08-05T11:20:41.737Z,35.69
2022-08-05T11:21:49.437Z,35.50
2022-08-05T11:22:42.118Z,35.35
2022-08-05T11:24:02.775Z,35.17
2022-08-05T11:24:40.725Z,35.28
2022-08-05T11:26:05.014Z,35.21
2022-08-05T11:26:40.596Z,35.38
2022-08-05T11:27:51.645Z,35.34
2022-08-05T11:28:40.471Z,35.39
2022-08-05T11:29:40.406Z,35.51
2022-08-05T11:30:40.352Z,35.41
2022-08-05T11:31:57.234Z,35.54
2022-08-05T11:32:40.222Z,35.42
2022-08-05T11:33:46.366Z,35.47
2022-08-05T11:34:40.099Z,35.41
2022-08-05T11:35:40.034Z,35.46
2022-08-05T11:36:40.498Z,35.36
2022-08-05T11:38:26.423Z,35.28
2022-08-05T11:38:50.953Z,35.31
2022-08-05T11:39:39.807Z,35.28
2022-08-05T11:40:39.718Z,35.39
2022-08-05T11:42:01.020Z,35.43
2022-08-05T11:42:40.458Z,35.58
2022-08-05T11:44:01.116Z,35.54
2022-08-05T11:44:52.780Z,35.51
2022-08-05T11:46:30.631Z,35.32
2022-08-05T11:46:58.556Z,35.32
2022-08-05T11:47:49.437Z,35.14
2022-08-05T11:48:39.224Z,34.98
2022-08-05T11:49:39.167Z,35.12
2022-08-05T11:50:39.094Z,35.13
2022-08-05T11:51:44.169Z,35.16
2022-08-05T11:52:38.969Z,35.19
2022-08-05T11:53:40.900Z,35.17
2022-08-05T11:54:40.567Z,35.17
2022-08-05T11:55:39.065Z,35.20
2022-08-05T11:56:40.927Z,35.32
2022-08-05T11:58:08.537Z,35.51
2022-08-05T11:58:38.596Z,35.43
2022-08-05T11:59:49.825Z,35.53
2022-08-05T12:00:39.021Z,35.57
2022-08-05T12:01:38.410Z,35.57
2022-08-05T12:02:40.097Z,35.54
2022-08-05T12:03:38.311Z,35.66
2022-08-05T12:04:38.222Z,35.61
2022-08-05T12:05:43.436Z,35.66
2022-08-05T12:06:38.095Z,35.70
2022-08-05T12:08:03.274Z,35.85
2022-08-05T12:08:39.317Z,35.98
2022-08-05T12:09:53.026Z,36.07
2022-08-05T12:10:43.161Z,36.17
2022-08-05T12:11:40.088Z,36.26
2022-08-05T12:12:37.760Z,36.32
2022-08-05T12:13:49.229Z,36.44
2022-08-05T12:14:37.599Z,36.61
2022-08-05T12:15:38.291Z,36.75
2022-08-05T12:16:38.433Z,36.57
2022-08-05T12:18:02.560Z,36.44
2022-08-05T12:18:38.823Z,36.41
2022-08-05T12:20:27.120Z,36.38
2022-08-05T12:20:37.224Z,36.36
2022-08-05T12:21:39.182Z,36.41
2022-08-05T12:22:37.099Z,36.54
2022-08-05T12:23:37.034Z,36.40
2022-08-05T12:24:36.975Z,36.48
2022-08-05T12:25:36.911Z,36.44
2022-08-05T12:26:36.851Z,36.52
2022-08-05T12:27:37.210Z,36.54
2022-08-05T12:28:36.990Z,36.64
2022-08-05T12:29:38.843Z,36.79
2022-08-05T12:30:36.607Z,36.82
2022-08-05T12:31:46.305Z,36.75
2022-08-05T12:32:36.481Z,36.81
2022-08-05T12:33:38.495Z,36.89
2022-08-05T12:34:36.357Z,36.98
2022-08-05T12:35:37.198Z,37.03
2022-08-05T12:36:36.323Z,37.15
2022-08-05T12:37:36.171Z,37.16
2022-08-05T12:38:36.112Z,37.12
2022-08-05T12:39:38.444Z,36.98
2022-08-05T12:40:36.082Z,36.98
2022-08-05T12:41:35.924Z,36.96
2022-08-05T12:42:35.861Z,36.92
2022-08-05T12:43:35.802Z,36.88
2022-08-05T12:44:35.739Z,36.83
2022-08-05T12:45:42.433Z,36.94
2022-08-05T12:46:35.617Z,36.97
2022-08-05T12:47:35.554Z,37.13
2022-08-05T12:48:35.496Z,36.98
2022-08-05T12:50:04.721Z,36.89
2022-08-05T12:50:35.371Z,36.82
2022-08-05T12:52:14.264Z,36.71